createdAt,value
2018-02-10T00:00:55.576Z,959.94
2018-02-10T00:01:55.567Z,960.00
2018-02-10T00:02:55.560Z,959.99
2018-02-10T00:03:55.552Z,959.94
2018-02-10T00:04:55.549Z,959.96
2018-02-10T00:05:55.552Z,959.99
2018-02-10T00:06:55.523Z,960.01
2018-02-10T00:07:55.516Z,960.02
2018-02-10T00:08:55.506Z,960.07
2018-02-10T00:09:55.495Z,960.07
2018-02-10T00:10:55.490Z,960.06
2018-02-10T00:11:55.483Z,960.07
2018-02-10T00:12:55.485Z,960.16
2018-02-10T00:13:55.494Z,960.13
2018-02-10T00:14:55.457Z,960.12
2018-02-10T00:15:55.451Z,960.10
2018-02-10T00:16:55.435Z,960.09
2018-02-10T00:17:55.438Z,960.09
2018-02-10T00:18:55.433Z,960.11
2018-02-10T00:19:55.426Z,960.10
2018-02-10T00:20:55.404Z,960.13
2018-02-10T00:21:55.393Z,960.07
2018-02-10T00:22:55.386Z,960.20
2018-02-10T00:23:55.375Z,960.19
2018-02-10T00:24:55.366Z,960.19
2018-02-10T00:25:55.405Z,960.20
2018-02-10T00:26:55.392Z,960.19
2018-02-10T00:27:55.397Z,960.18
2018-02-10T00:28:55.410Z,960.16
2018-02-10T00:29:55.381Z,960.14
2018-02-10T00:30:55.358Z,960.17
2018-02-10T00:31:55.363Z,960.14
2018-02-10T00:32:55.329Z,960.20
2018-02-10T00:33:55.335Z,960.21
2018-02-10T00:34:55.337Z,960.19
2018-02-10T00:35:55.305Z,960.22
2018-02-10T00:36:55.291Z,960.21
2018-02-10T00:37:55.376Z,960.20
2018-02-10T00:38:55.284Z,960.20
2018-02-10T00:39:55.247Z,960.21
2018-02-10T00:40:55.268Z,960.20
2018-02-10T00:41:55.230Z,960.21
2018-02-10T00:42:55.239Z,960.23
2018-02-10T00:43:55.198Z,960.20
2018-02-10T00:44:55.212Z,960.24
2018-02-10T00:45:55.241Z,960.20
2018-02-10T00:46:55.185Z,960.20
2018-02-10T00:47:55.163Z,960.22
2018-02-10T00:48:55.154Z,960.20
2018-02-10T00:49:55.144Z,960.15
2018-02-10T00:50:55.134Z,960.19
2018-02-10T00:51:55.141Z,960.17
2018-02-10T00:52:55.119Z,960.13
2018-02-10T00:53:55.122Z,960.14
2018-02-10T00:54:55.111Z,960.12
2018-02-10T00:55:55.090Z,960.12
2018-02-10T00:56:55.078Z,960.12
2018-02-10T00:57:55.072Z,960.12
2018-02-10T00:58:55.060Z,960.14
2018-02-10T00:59:55.050Z,960.10
2018-02-10T01:00:55.042Z,960.12
2018-02-10T01:01:55.042Z,960.11
2018-02-10T01:02:55.022Z,960.16
2018-02-10T01:03:55.019Z,960.17
2018-02-10T01:04:55.009Z,960.18
2018-02-10T01:05:54.995Z,960.17
2018-02-10T01:06:54.994Z,960.20
2018-02-10T01:07:54.977Z,960.18
2018-02-10T01:08:54.970Z,960.12
2018-02-10T01:09:54.961Z,960.15
2018-02-10T01:10:54.953Z,960.20
2018-02-10T01:11:54.944Z,960.20
2018-02-10T01:12:54.929Z,960.19
2018-02-10T01:13:54.929Z,960.19
2018-02-10T01:14:54.910Z,960.22
2018-02-10T01:15:54.899Z,960.18
2018-02-10T01:16:54.896Z,960.24
2018-02-10T01:17:54.886Z,960.25
2018-02-10T01:18:54.875Z,960.27
2018-02-10T01:19:54.865Z,960.22
2018-02-10T01:20:54.855Z,960.27
2018-02-10T01:21:54.845Z,960.31
2018-02-10T01:22:54.838Z,960.27
2018-02-10T01:23:54.846Z,960.25
2018-02-10T01:24:54.816Z,960.21
2018-02-10T01:25:54.813Z,960.19
2018-02-10T01:26:54.800Z,960.15
2018-02-10T01:27:54.792Z,960.22
2018-02-10T01:28:54.781Z,960.24
2018-02-10T01:29:54.776Z,960.26
2018-02-10T01:30:54.762Z,960.27
2018-02-10T01:31:54.753Z,960.26
2018-02-10T01:32:54.743Z,960.27
2018-02-10T01:33:54.734Z,960.28
2018-02-10T01:34:54.724Z,960.21
2018-02-10T01:35:54.714Z,960.26
2018-02-10T01:36:54.708Z,960.25
2018-02-10T01:37:54.699Z,960.24
2018-02-10T01:38:54.757Z,960.30
2018-02-10T01:39:54.688Z,960.24
2018-02-10T01:40:55.292Z,960.25
2018-02-10T01:41:54.712Z,960.27
2018-02-10T01:42:54.657Z,960.24
2018-02-10T01:43:54.643Z,960.25
2018-02-10T01:44:54.637Z,960.24
2018-02-10T01:45:55.227Z,960.22
2018-02-10T01:46:54.620Z,960.27
2018-02-10T01:47:54.608Z,960.24
2018-02-10T01:48:54.593Z,960.28
2018-02-10T01:49:54.588Z,960.27
2018-02-10T01:50:54.582Z,960.25
2018-02-10T01:51:54.566Z,960.23
2018-02-10T01:52:54.561Z,960.22
2018-02-10T01:53:54.550Z,960.26
2018-02-10T01:54:55.214Z,960.17
2018-02-10T01:55:54.532Z,960.23
2018-02-10T01:56:54.522Z,960.18
2018-02-10T01:57:54.512Z,960.23
2018-02-10T01:58:54.501Z,960.22
2018-02-10T01:59:54.493Z,960.20
2018-02-10T02:00:55.217Z,960.23
2018-02-10T02:01:54.481Z,960.18
2018-02-10T02:02:54.491Z,960.21
2018-02-10T02:03:54.454Z,960.22
2018-02-10T02:04:54.449Z,960.25
2018-02-10T02:05:54.437Z,960.21
2018-02-10T02:06:54.428Z,960.21
2018-02-10T02:07:54.421Z,960.23
2018-02-10T02:08:54.416Z,960.24
2018-02-10T02:09:54.402Z,960.22
2018-02-10T02:10:54.393Z,960.21
2018-02-10T02:11:54.384Z,960.21
2018-02-10T02:12:54.376Z,960.20
2018-02-10T02:13:54.363Z,960.24
2018-02-10T02:14:54.361Z,960.24
2018-02-10T02:15:54.346Z,960.21
2018-02-10T02:16:54.338Z,960.24
2018-02-10T02:17:54.331Z,960.22
2018-02-10T02:18:54.318Z,960.19
2018-02-10T02:19:54.308Z,960.21
2018-02-10T02:20:54.303Z,960.22
2018-02-10T02:21:54.294Z,960.19
2018-02-10T02:22:54.282Z,960.19
2018-02-10T02:23:54.271Z,960.22
2018-02-10T02:24:54.264Z,960.24
2018-02-10T02:25:54.268Z,960.24
2018-02-10T02:26:54.249Z,960.19
2018-02-10T02:27:54.235Z,960.23
2018-02-10T02:28:54.225Z,960.09
2018-02-10T02:29:54.224Z,960.21
2018-02-10T02:30:54.207Z,960.20
2018-02-10T02:31:54.197Z,960.19
2018-02-10T02:32:54.713Z,960.19
2018-02-10T02:33:54.194Z,960.19
2018-02-10T02:34:54.720Z,960.21
2018-02-10T02:35:54.716Z,960.16
2018-02-10T02:36:54.717Z,960.17
2018-02-10T02:37:54.713Z,960.11
2018-02-10T02:38:54.152Z,960.17
2018-02-10T02:39:54.142Z,960.11
2018-02-10T02:40:54.115Z,960.15
2018-02-10T02:41:54.113Z,960.11
2018-02-10T02:42:54.104Z,960.13
2018-02-10T02:43:54.092Z,960.14
2018-02-10T02:44:54.089Z,960.10
2018-02-10T02:45:54.105Z,960.11
2018-02-10T02:46:54.069Z,960.12
2018-02-10T02:47:54.055Z,960.13
2018-02-10T02:48:54.067Z,960.10
2018-02-10T02:49:54.046Z,960.11
2018-02-10T02:50:54.057Z,960.13
2018-02-10T02:51:54.047Z,960.17
2018-02-10T02:52:54.016Z,960.22
2018-02-10T02:53:54.001Z,960.19
2018-02-10T02:54:54.029Z,960.17
2018-02-10T02:55:54.013Z,960.16
2018-02-10T02:56:54.031Z,960.16
2018-02-10T02:57:54.000Z,960.16
2018-02-10T02:58:53.976Z,960.13
2018-02-10T02:59:53.948Z,960.10
2018-02-10T03:00:53.955Z,960.12
2018-02-10T03:01:53.955Z,960.09
2018-02-10T03:02:53.918Z,960.10
2018-02-10T03:03:53.940Z,960.12
2018-02-10T03:04:53.913Z,960.12
2018-02-10T03:05:53.892Z,960.11
2018-02-10T03:06:53.885Z,960.13
2018-02-10T03:07:53.876Z,960.14
2018-02-10T03:08:53.864Z,960.17
2018-02-10T03:09:53.887Z,960.17
2018-02-10T03:10:53.861Z,960.16
2018-02-10T03:11:53.839Z,960.17
2018-02-10T03:12:53.831Z,960.20
2018-02-10T03:13:53.898Z,960.23
2018-02-10T03:14:53.849Z,960.27
2018-02-10T03:15:53.813Z,960.23
2018-02-10T03:16:53.828Z,960.21
2018-02-10T03:17:53.795Z,960.23
2018-02-10T03:18:53.779Z,960.26
2018-02-10T03:19:53.769Z,960.26
2018-02-10T03:20:53.762Z,960.29
2018-02-10T03:21:53.747Z,960.31
2018-02-10T03:22:53.743Z,960.29
2018-02-10T03:23:53.735Z,960.32
2018-02-10T03:24:53.726Z,960.33
2018-02-10T03:25:53.743Z,960.32
2018-02-10T03:26:53.744Z,960.28
2018-02-10T03:27:53.723Z,960.33
2018-02-10T03:28:53.686Z,960.32
2018-02-10T03:29:53.697Z,960.26
2018-02-10T03:30:53.674Z,960.27
2018-02-10T03:31:53.659Z,960.23
2018-02-10T03:32:53.653Z,960.27
2018-02-10T03:33:53.640Z,960.22
2018-02-10T03:34:53.633Z,960.29
2018-02-10T03:35:53.623Z,960.23
2018-02-10T03:36:53.619Z,960.22
2018-02-10T03:37:53.609Z,960.22
2018-02-10T03:38:53.601Z,960.18
2018-02-10T03:39:53.592Z,960.23
2018-02-10T03:40:53.579Z,960.26
2018-02-10T03:41:53.606Z,960.27
2018-02-10T03:42:53.561Z,960.21
2018-02-10T03:43:53.553Z,960.23
2018-02-10T03:44:53.543Z,960.22
2018-02-10T03:45:53.532Z,960.25
2018-02-10T03:46:53.526Z,960.27
2018-02-10T03:47:53.521Z,960.25
2018-02-10T03:48:53.510Z,960.29
2018-02-10T03:49:53.499Z,960.27
2018-02-10T03:50:53.489Z,960.23
2018-02-10T03:51:53.478Z,960.26
2018-02-10T03:52:53.474Z,960.28
2018-02-10T03:53:53.459Z,960.31
2018-02-10T03:54:53.451Z,960.30
2018-02-10T03:55:53.440Z,960.35
2018-02-10T03:56:53.437Z,960.32
2018-02-10T03:57:53.423Z,960.32
2018-02-10T03:58:53.418Z,960.32
2018-02-10T03:59:53.409Z,960.33
2018-02-10T04:00:53.400Z,960.36
2018-02-10T04:01:53.393Z,960.36
2018-02-10T04:02:53.377Z,960.31
2018-02-10T04:03:53.371Z,960.34
2018-02-10T04:04:53.363Z,960.36
2018-02-10T04:05:53.373Z,960.36
2018-02-10T04:06:53.344Z,960.30
2018-02-10T04:07:53.336Z,960.24
2018-02-10T04:08:53.327Z,960.29
2018-02-10T04:09:53.318Z,960.30
2018-02-10T04:10:53.309Z,960.24
2018-02-10T04:11:53.315Z,960.28
2018-02-10T04:12:53.295Z,960.23
2018-02-10T04:13:53.297Z,960.23
2018-02-10T04:14:53.269Z,960.26
2018-02-10T04:15:53.260Z,960.19
2018-02-10T04:16:53.326Z,960.25
2018-02-10T04:17:53.254Z,960.24
2018-02-10T04:18:53.237Z,960.24
2018-02-10T04:19:53.225Z,960.25
2018-02-10T04:20:53.222Z,960.26
2018-02-10T04:21:53.207Z,960.22
2018-02-10T04:22:53.199Z,960.22
2018-02-10T04:23:53.190Z,960.23
2018-02-10T04:24:53.179Z,960.22
2018-02-10T04:25:53.172Z,960.19
2018-02-10T04:26:53.165Z,960.14
2018-02-10T04:27:53.152Z,960.07
2018-02-10T04:28:53.146Z,960.09
2018-02-10T04:29:53.139Z,960.12
2018-02-10T04:30:53.135Z,960.10
2018-02-10T04:31:53.115Z,960.10
2018-02-10T04:32:53.134Z,960.06
2018-02-10T04:33:53.098Z,960.08
2018-02-10T04:34:53.089Z,960.10
2018-02-10T04:35:53.079Z,960.14
2018-02-10T04:36:53.078Z,960.21
2018-02-10T04:37:53.070Z,960.16
2018-02-10T04:38:53.085Z,960.19
2018-02-10T04:39:53.043Z,960.19
2018-02-10T04:40:53.036Z,960.19
2018-02-10T04:41:53.029Z,960.20
2018-02-10T04:42:53.018Z,960.18
2018-02-10T04:43:53.017Z,960.19
2018-02-10T04:44:53.000Z,960.20
2018-02-10T04:45:52.996Z,960.20
2018-02-10T04:46:52.986Z,960.21
2018-02-10T04:47:52.979Z,960.20
2018-02-10T04:48:52.974Z,960.18
2018-02-10T04:49:52.955Z,960.23
2018-02-10T04:50:52.950Z,960.26
2018-02-10T04:51:52.938Z,960.24
2018-02-10T04:52:52.930Z,960.23
2018-02-10T04:53:52.945Z,960.22
2018-02-10T04:54:52.909Z,960.19
2018-02-10T04:55:52.908Z,960.24
2018-02-10T04:56:52.890Z,960.23
2018-02-10T04:57:52.889Z,960.18
2018-02-10T04:58:52.876Z,960.15
2018-02-10T04:59:52.870Z,960.15
2018-02-10T05:00:52.858Z,960.15
2018-02-10T05:01:52.853Z,960.13
2018-02-10T05:02:52.846Z,960.13
2018-02-10T05:03:52.835Z,960.11
2018-02-10T05:04:52.821Z,960.13
2018-02-10T05:05:52.821Z,960.11
2018-02-10T05:06:52.808Z,960.12
2018-02-10T05:07:52.799Z,960.10
2018-02-10T05:08:52.801Z,960.11
2018-02-10T05:09:52.782Z,960.11
2018-02-10T05:10:52.769Z,960.11
2018-02-10T05:11:52.776Z,960.09
2018-02-10T05:12:52.769Z,960.14
2018-02-10T05:13:52.747Z,960.18
2018-02-10T05:14:52.732Z,960.15
2018-02-10T05:15:52.723Z,960.16
2018-02-10T05:16:52.716Z,960.18
2018-02-10T05:17:52.710Z,960.18
2018-02-10T05:18:52.706Z,960.17
2018-02-10T05:19:52.689Z,960.18
2018-02-10T05:20:52.682Z,960.20
2018-02-10T05:21:52.673Z,960.16
2018-02-10T05:22:52.673Z,960.17
2018-02-10T05:23:52.654Z,960.16
2018-02-10T05:24:52.652Z,960.15
2018-02-10T05:25:52.646Z,960.15
2018-02-10T05:26:52.631Z,960.15
2018-02-10T05:27:52.625Z,960.17
2018-02-10T05:28:52.616Z,960.16
2018-02-10T05:29:52.609Z,960.21
2018-02-10T05:30:52.602Z,960.18
2018-02-10T05:31:52.602Z,960.22
2018-02-10T05:32:52.576Z,960.24
2018-02-10T05:33:52.575Z,960.20
2018-02-10T05:34:52.561Z,960.24
2018-02-10T05:35:52.557Z,960.24
2018-02-10T05:36:52.548Z,960.25
2018-02-10T05:37:52.539Z,960.27
2018-02-10T05:38:52.530Z,960.23
2018-02-10T05:39:52.517Z,960.26
2018-02-10T05:40:52.521Z,960.24
2018-02-10T05:41:52.502Z,960.30
2018-02-10T05:42:53.215Z,960.25
2018-02-10T05:43:52.490Z,960.30
2018-02-10T05:44:52.480Z,960.30
2018-02-10T05:45:53.248Z,960.31
2018-02-10T05:46:53.216Z,960.38
2018-02-10T05:47:52.454Z,960.36
2018-02-10T05:48:52.446Z,960.41
2018-02-10T05:49:52.461Z,960.33
2018-02-10T05:50:52.428Z,960.36
2018-02-10T05:51:52.426Z,960.33
2018-02-10T05:52:52.409Z,960.34
2018-02-10T05:53:52.399Z,960.34
2018-02-10T05:54:52.391Z,960.32
2018-02-10T05:55:52.385Z,960.25
2018-02-10T05:57:29.180Z,960.21
2018-02-10T05:58:29.172Z,960.23
2018-02-10T06:00:23.516Z,960.23
2018-02-10T06:01:23.438Z,960.26
2018-02-10T06:03:18.836Z,960.20
2018-02-10T06:04:18.755Z,960.32
2018-02-10T06:06:13.367Z,960.24
2018-02-10T06:07:13.119Z,960.25
2018-02-10T06:08:13.099Z,960.23
2018-02-10T06:09:13.096Z,960.26
2018-02-10T06:10:13.047Z,960.26
2018-02-10T06:11:13.038Z,960.25
2018-02-10T06:12:13.023Z,960.27
2018-02-10T06:13:13.016Z,960.29
2018-02-10T06:14:13.026Z,960.34
2018-02-10T06:15:12.996Z,960.40
2018-02-10T06:16:13.092Z,960.39
2018-02-10T06:17:12.998Z,960.40
2018-02-10T06:18:12.975Z,960.44
2018-02-10T06:19:12.968Z,960.47
2018-02-10T06:20:12.964Z,960.44
2018-02-10T06:21:12.952Z,960.41
2018-02-10T06:22:12.968Z,960.42
2018-02-10T06:23:12.934Z,960.39
2018-02-10T06:24:12.929Z,960.42
2018-02-10T06:25:12.919Z,960.44
2018-02-10T06:26:12.910Z,960.47
2018-02-10T06:27:12.899Z,960.49
2018-02-10T06:28:12.897Z,960.49
2018-02-10T06:29:12.880Z,960.49
2018-02-10T06:30:12.870Z,960.54
2018-02-10T06:31:12.876Z,960.56
2018-02-10T06:32:12.863Z,960.55
2018-02-10T06:33:12.850Z,960.52
2018-02-10T06:34:12.862Z,960.53
2018-02-10T06:35:12.893Z,960.56
2018-02-10T06:36:12.910Z,960.59
2018-02-10T06:37:12.863Z,960.60
2018-02-10T06:38:12.850Z,960.53
2018-02-10T06:39:12.799Z,960.57
2018-02-10T06:40:12.797Z,960.61
2018-02-10T06:41:12.784Z,960.68
2018-02-10T06:42:12.769Z,960.68
2018-02-10T06:43:12.779Z,960.66
2018-02-10T06:44:12.841Z,960.73
2018-02-10T06:45:12.797Z,960.74
2018-02-10T06:46:12.760Z,960.80
2018-02-10T06:47:12.735Z,960.79
2018-02-10T06:48:12.740Z,960.80
2018-02-10T06:49:12.715Z,960.87
2018-02-10T06:50:12.777Z,960.86
2018-02-10T06:51:12.722Z,960.87
2018-02-10T06:52:12.844Z,960.93
2018-02-10T06:53:12.684Z,960.97
2018-02-10T06:54:12.715Z,960.94
2018-02-10T06:55:12.762Z,960.96
2018-02-10T06:56:12.821Z,960.95
2018-02-10T06:57:12.783Z,960.95
2018-02-10T06:58:12.736Z,961.04
2018-02-10T06:59:12.639Z,961.01
2018-02-10T07:00:12.688Z,960.97
2018-02-10T07:01:12.684Z,961.01
2018-02-10T07:02:12.641Z,961.00
2018-02-10T07:03:12.610Z,961.02
2018-02-10T07:04:12.592Z,961.03
2018-02-10T07:05:12.575Z,961.07
2018-02-10T07:06:12.563Z,961.00
2018-02-10T07:07:12.555Z,961.04
2018-02-10T07:08:12.550Z,960.99
2018-02-10T07:09:12.539Z,961.00
2018-02-10T07:10:12.538Z,960.99
2018-02-10T07:11:12.522Z,961.01
2018-02-10T07:12:12.514Z,960.98
2018-02-10T07:13:12.502Z,961.00
2018-02-10T07:14:12.508Z,961.03
2018-02-10T07:15:12.615Z,960.96
2018-02-10T07:16:13.212Z,960.98
2018-02-10T07:17:12.486Z,960.99
2018-02-10T07:18:12.495Z,960.97
2018-02-10T07:19:12.486Z,960.99
2018-02-10T07:20:12.449Z,960.96
2018-02-10T07:21:12.445Z,960.97
2018-02-10T07:22:12.438Z,960.99
2018-02-10T07:23:12.515Z,960.94
2018-02-10T07:24:12.412Z,960.97
2018-02-10T07:25:12.451Z,960.96
2018-02-10T07:26:12.397Z,961.01
2018-02-10T07:27:13.492Z,961.01
2018-02-10T07:28:12.406Z,960.94
2018-02-10T07:29:12.369Z,960.94
2018-02-10T07:30:12.361Z,960.95
2018-02-10T07:31:12.355Z,960.96
2018-02-10T07:32:12.348Z,960.96
2018-02-10T07:33:12.377Z,961.00
2018-02-10T07:34:12.331Z,960.95
2018-02-10T07:35:12.320Z,961.01
2018-02-10T07:36:21.202Z,961.03
2018-02-10T07:38:06.922Z,961.03
2018-02-10T07:39:06.732Z,960.97
2018-02-10T07:41:01.020Z,961.04
2018-02-10T07:42:01.165Z,961.05
2018-02-10T07:43:55.408Z,961.05
2018-02-10T07:44:55.567Z,961.08
2018-02-10T07:46:50.189Z,961.13
2018-02-10T07:47:50.046Z,961.11
2018-02-10T07:48:50.016Z,961.13
2018-02-10T07:49:49.669Z,961.16
2018-02-10T07:50:49.693Z,961.16
2018-02-10T07:51:50.266Z,961.19
2018-02-10T07:52:51.253Z,961.19
2018-02-10T07:53:49.631Z,961.20
2018-02-10T07:54:49.622Z,961.15
2018-02-10T07:55:49.618Z,961.20
2018-02-10T07:56:49.606Z,961.20
2018-02-10T07:57:49.642Z,961.19
2018-02-10T07:58:49.593Z,961.22
2018-02-10T07:59:49.582Z,961.22
2018-02-10T08:00:49.577Z,961.17
2018-02-10T08:01:49.568Z,961.12
2018-02-10T08:02:49.561Z,961.16
2018-02-10T08:03:49.586Z,961.11
2018-02-10T08:04:49.642Z,961.17
2018-02-10T08:05:49.543Z,961.13
2018-02-10T08:06:49.586Z,961.10
2018-02-10T08:07:49.520Z,961.12
2018-02-10T08:08:49.517Z,961.16
2018-02-10T08:09:51.297Z,961.15
2018-02-10T08:10:49.495Z,961.18
2018-02-10T08:11:49.491Z,961.15
2018-02-10T08:12:49.480Z,961.19
2018-02-10T08:13:49.470Z,961.16
2018-02-10T08:14:49.466Z,961.13
2018-02-10T08:15:49.455Z,961.20
2018-02-10T08:16:49.448Z,961.19
2018-02-10T08:17:49.442Z,961.17
2018-02-10T08:18:49.431Z,961.20
2018-02-10T08:19:49.423Z,961.19
2018-02-10T08:20:49.491Z,961.18
2018-02-10T08:21:49.408Z,961.16
2018-02-10T08:22:49.401Z,961.18
2018-02-10T08:23:49.396Z,961.22
2018-02-10T08:24:49.389Z,961.18
2018-02-10T08:25:49.379Z,961.12
2018-02-10T08:26:49.371Z,961.15
2018-02-10T08:27:49.368Z,961.19
2018-02-10T08:28:49.356Z,961.24
2018-02-10T08:29:49.347Z,961.15
2018-02-10T08:30:49.341Z,961.14
2018-02-10T08:31:49.337Z,961.13
2018-02-10T08:32:49.327Z,961.14
2018-02-10T08:33:49.321Z,961.13
2018-02-10T08:34:49.311Z,961.33
2018-02-10T08:35:49.331Z,961.44
2018-02-10T08:36:49.323Z,961.49
2018-02-10T08:37:49.293Z,961.46
2018-02-10T08:38:49.285Z,961.60
2018-02-10T08:39:49.284Z,961.77
2018-02-10T08:40:49.276Z,961.80
2018-02-10T08:41:49.271Z,961.89
2018-02-10T08:42:49.312Z,961.83
2018-02-10T08:43:51.250Z,961.73
2018-02-10T08:44:49.256Z,961.70
2018-02-10T08:45:49.251Z,961.61
2018-02-10T08:46:49.249Z,961.57
2018-02-10T08:47:49.244Z,961.61
2018-02-10T08:48:49.246Z,961.53
2018-02-10T08:49:49.240Z,961.52
2018-02-10T08:50:49.238Z,961.74
2018-02-10T08:51:49.270Z,961.88
2018-02-10T08:52:49.232Z,961.83
2018-02-10T08:53:49.229Z,961.89
2018-02-10T08:54:49.227Z,961.94
2018-02-10T08:55:49.304Z,961.89
2018-02-10T08:56:49.253Z,961.93
2018-02-10T08:57:49.225Z,962.08
2018-02-10T08:58:49.228Z,962.14
2018-02-10T08:59:49.285Z,962.11
2018-02-10T09:00:49.272Z,962.11
2018-02-10T09:01:49.220Z,961.77
2018-02-10T09:02:49.216Z,962.02
2018-02-10T09:03:49.220Z,962.08
2018-02-10T09:04:49.237Z,961.96
2018-02-10T09:05:51.906Z,962.08
2018-02-10T09:06:51.059Z,961.95
2018-02-10T09:07:49.219Z,962.03
2018-02-10T09:08:49.225Z,961.98
2018-02-10T09:09:49.225Z,962.08
2018-02-10T09:10:49.225Z,962.19
2018-02-10T09:11:49.235Z,962.16
2018-02-10T09:12:52.755Z,962.19
2018-02-10T09:13:49.233Z,962.13
2018-02-10T09:14:49.238Z,962.18
2018-02-10T09:15:49.241Z,962.12
2018-02-10T09:16:49.248Z,962.16
2018-02-10T09:17:49.247Z,962.15
2018-02-10T09:18:49.252Z,962.10
2018-02-10T09:19:49.259Z,962.09
2018-02-10T09:20:51.749Z,962.09
2018-02-10T09:21:49.265Z,962.07
2018-02-10T09:22:49.274Z,962.12
2018-02-10T09:23:49.276Z,962.10
2018-02-10T09:24:49.282Z,962.07
2018-02-10T09:25:49.286Z,962.04
2018-02-10T09:26:49.295Z,962.16
2018-02-10T09:27:49.300Z,962.00
2018-02-10T09:28:49.344Z,961.86
2018-02-10T09:29:49.317Z,962.11
2018-02-10T09:30:49.364Z,962.06
2018-02-10T09:31:49.325Z,962.03
2018-02-10T09:32:49.332Z,961.92
2018-02-10T09:33:49.336Z,961.93
2018-02-10T09:34:49.340Z,961.86
2018-02-10T09:35:49.349Z,961.74
2018-02-10T09:36:49.373Z,961.84
2018-02-10T09:37:49.361Z,962.09
2018-02-10T09:38:49.367Z,962.06
2018-02-10T09:39:49.372Z,961.99
2018-02-10T09:40:49.377Z,961.97
2018-02-10T09:41:49.384Z,962.10
2018-02-10T09:42:49.387Z,962.07
2018-02-10T09:43:49.393Z,962.11
2018-02-10T09:44:49.403Z,962.11
2018-02-10T09:45:49.419Z,962.15
2018-02-10T09:46:52.265Z,962.18
2018-02-10T09:47:49.420Z,962.11
2018-02-10T09:48:49.430Z,962.15
2018-02-10T09:49:49.475Z,962.18
2018-02-10T09:50:49.440Z,962.17
2018-02-10T09:51:49.446Z,962.15
2018-02-10T09:52:49.454Z,962.12
2018-02-10T09:53:49.461Z,962.14
2018-02-10T09:54:49.467Z,962.16
2018-02-10T09:55:49.475Z,962.11
2018-02-10T09:56:49.489Z,962.12
2018-02-10T09:57:49.497Z,962.14
2018-02-10T09:58:49.549Z,962.10
2018-02-10T09:59:51.276Z,962.15
2018-02-10T10:00:49.529Z,962.06
2018-02-10T10:01:49.873Z,962.09
2018-02-10T10:02:49.573Z,962.07
2018-02-10T10:03:49.561Z,962.05
2018-02-10T10:04:49.843Z,962.09
2018-02-10T10:05:51.269Z,962.07
2018-02-10T10:06:49.918Z,962.06
2018-02-10T10:07:49.920Z,962.11
2018-02-10T10:08:49.920Z,962.13
2018-02-10T10:09:49.928Z,962.08
2018-02-10T10:10:49.622Z,962.11
2018-02-10T10:11:49.937Z,962.06
2018-02-10T10:12:49.881Z,962.10
2018-02-10T10:13:49.926Z,962.06
2018-02-10T10:14:50.057Z,962.08
2018-02-10T10:15:50.019Z,962.07
2018-02-10T10:16:49.956Z,962.11
2018-02-10T10:17:49.936Z,962.13
2018-02-10T10:18:58.304Z,962.11
2018-02-10T10:20:45.616Z,962.07
2018-02-10T10:21:44.099Z,962.11
2018-02-10T10:22:44.119Z,962.03
2018-02-10T10:23:44.110Z,962.08
2018-02-10T10:24:44.140Z,962.06
2018-02-10T10:25:44.121Z,962.04
2018-02-10T10:26:44.127Z,962.04
2018-02-10T10:27:44.135Z,962.06
2018-02-10T10:28:44.149Z,962.03
2018-02-10T10:29:44.203Z,961.97
2018-02-10T10:30:44.161Z,962.04
2018-02-10T10:31:44.204Z,961.94
2018-02-10T10:32:56.136Z,961.98
2018-02-10T10:34:38.591Z,961.99
2018-02-10T10:35:38.604Z,961.97
2018-02-10T10:36:38.588Z,961.95
2018-02-10T10:37:38.665Z,961.92
2018-02-10T10:38:38.621Z,961.86
2018-02-10T10:39:38.614Z,961.71
2018-02-10T10:40:38.620Z,961.51
2018-02-10T10:41:51.496Z,961.36
2018-02-10T10:43:33.942Z,961.31
2018-02-10T10:44:33.883Z,961.23
2018-02-10T10:45:33.887Z,961.17
2018-02-10T10:46:33.904Z,961.13
2018-02-10T10:47:33.911Z,961.09
2018-02-10T10:48:33.907Z,961.09
2018-02-10T10:49:33.914Z,961.07
2018-02-10T10:50:33.945Z,961.00
2018-02-10T10:51:33.930Z,960.98
2018-02-10T10:52:33.983Z,960.97
2018-02-10T10:53:34.175Z,960.81
2018-02-10T10:54:34.849Z,960.88
2018-02-10T10:55:34.074Z,960.84
2018-02-10T10:56:34.044Z,960.87
2018-02-10T10:57:33.967Z,960.83
2018-02-10T10:59:28.422Z,960.71
2018-02-10T11:00:28.514Z,960.69
2018-02-10T11:02:22.782Z,960.73
2018-02-10T11:03:22.700Z,960.69
2018-02-10T11:05:17.080Z,960.74
2018-02-10T11:06:17.120Z,960.68
2018-02-10T11:08:11.450Z,960.60
2018-02-10T11:09:11.429Z,960.60
2018-02-10T11:10:11.429Z,960.73
2018-02-10T11:11:11.426Z,960.72
2018-02-10T11:12:11.424Z,960.74
2018-02-10T11:13:11.422Z,960.76
2018-02-10T11:14:11.422Z,960.70
2018-02-10T11:15:11.420Z,960.75
2018-02-10T11:16:11.418Z,960.73
2018-02-10T11:17:11.415Z,960.78
2018-02-10T11:18:11.441Z,960.79
2018-02-10T11:19:11.409Z,960.80
2018-02-10T11:20:11.406Z,960.84
2018-02-10T11:21:11.407Z,960.89
2018-02-10T11:22:11.450Z,960.83
2018-02-10T11:23:11.400Z,960.87
2018-02-10T11:24:11.529Z,960.86
2018-02-10T11:25:11.432Z,960.83
2018-02-10T11:26:11.390Z,960.76
2018-02-10T11:27:11.390Z,960.80
2018-02-10T11:28:11.433Z,960.78
2018-02-10T11:29:11.381Z,960.75
2018-02-10T11:30:11.444Z,960.82
2018-02-10T11:31:11.376Z,960.74
2018-02-10T11:32:11.372Z,960.76
2018-02-10T11:33:11.366Z,960.82
2018-02-10T11:34:11.365Z,960.86
2018-02-10T11:35:11.359Z,960.78
2018-02-10T11:36:11.365Z,960.84
2018-02-10T11:37:11.350Z,960.80
2018-02-10T11:38:11.344Z,960.85
2018-02-10T11:39:11.343Z,960.83
2018-02-10T11:40:11.338Z,960.82
2018-02-10T11:41:11.334Z,960.81
2018-02-10T11:42:12.005Z,960.78
2018-02-10T11:43:11.324Z,960.74
2018-02-10T11:44:11.326Z,960.76
2018-02-10T11:45:11.320Z,960.75
2018-02-10T11:46:11.312Z,960.79
2018-02-10T11:47:11.305Z,960.77
2018-02-10T11:48:11.303Z,960.78
2018-02-10T11:49:11.300Z,960.81
2018-02-10T11:50:11.293Z,960.77
2018-02-10T11:51:11.287Z,960.77
2018-02-10T11:52:11.283Z,960.74
2018-02-10T11:53:11.281Z,960.77
2018-02-10T11:54:11.276Z,960.73
2018-02-10T11:55:11.273Z,960.70
2018-02-10T11:56:11.263Z,960.69
2018-02-10T11:57:11.258Z,960.70
2018-02-10T11:58:11.253Z,960.68
2018-02-10T11:59:11.249Z,960.66
2018-02-10T12:00:11.243Z,960.66
2018-02-10T12:01:11.244Z,960.64
2018-02-10T12:02:11.263Z,960.65
2018-02-10T12:03:11.228Z,960.59
2018-02-10T12:04:11.223Z,960.55
2018-02-10T12:05:11.219Z,960.60
2018-02-10T12:06:11.213Z,960.59
2018-02-10T12:07:11.208Z,960.64
2018-02-10T12:08:11.205Z,960.67
2018-02-10T12:09:11.199Z,960.63
2018-02-10T12:10:11.196Z,960.69
2018-02-10T12:11:11.189Z,960.66
2018-02-10T12:12:11.183Z,960.62
2018-02-10T12:13:11.178Z,960.62
2018-02-10T12:14:11.275Z,960.59
2018-02-10T12:15:11.166Z,960.56
2018-02-10T12:16:11.168Z,960.56
2018-02-10T12:17:11.159Z,960.55
2018-02-10T12:18:11.158Z,960.57
2018-02-10T12:19:11.147Z,960.56
2018-02-10T12:20:11.144Z,960.59
2018-02-10T12:21:11.137Z,960.63
2018-02-10T12:22:11.133Z,960.58
2018-02-10T12:23:11.153Z,960.58
2018-02-10T12:24:11.122Z,960.52
2018-02-10T12:25:11.117Z,960.52
2018-02-10T12:26:11.113Z,960.48
2018-02-10T12:27:11.106Z,960.52
2018-02-10T12:28:11.104Z,960.48
2018-02-10T12:29:11.104Z,960.44
2018-02-10T12:30:11.095Z,960.42
2018-02-10T12:31:11.090Z,960.43
2018-02-10T12:32:11.082Z,960.41
2018-02-10T12:33:11.080Z,960.38
2018-02-10T12:34:11.074Z,960.35
2018-02-10T12:35:11.067Z,960.37
2018-02-10T12:36:11.063Z,960.38
2018-02-10T12:37:11.057Z,960.33
2018-02-10T12:38:11.054Z,960.35
2018-02-10T12:39:11.048Z,960.33
2018-02-10T12:40:11.046Z,960.33
2018-02-10T12:41:11.037Z,960.34
2018-02-10T12:42:11.030Z,960.27